Time;durP1;ratioP1;P1;durP2;ratioP2;P2;SDS_P1;SDS_P2;PMS_P1;PMS_P2;Temp;Humidity;BMP_temperature;BMP_pressure;BME280_temperature;BME280_humidity;BME280_pressure;Samples;Min_cycle;Max_cycle;Signal;HPM_P1;HPM_P2
2021/08/11 00:01:45;;;;;;;10.63;7.40;;;;;;;-145.71;100.00;60690.53;5011916;28;20085;-80
2021/08/11 00:04:10;;;;;;;16.80;10.18;;;;;;;-145.71;100.00;60690.53;5014101;28;20393;-81
2021/08/11 00:06:35;;;;;;;15.02;7.38;;;;;;;-145.71;100.00;60690.53;4996690;28;20053;-80
2021/08/11 00:09:02;;;;;;;10.48;7.75;;;;;;;-145.71;100.00;60690.53;5013575;28;20068;-80
2021/08/11 00:11:29;;;;;;;13.70;7.53;;;;;;;-145.71;100.00;60690.53;5012538;28;20033;-80
2021/08/11 00:13:54;;;;;;;8.02;6.80;;;;;;;-145.71;100.00;60690.53;5013604;28;20045;-81
2021/08/11 00:16:20;;;;;;;15.63;9.68;;;;;;;-145.71;100.00;60690.53;5014574;28;20053;-81
2021/08/11 00:18:45;;;;;;;12.55;9.45;;;;;;;-145.71;100.00;60690.53;4995954;28;20030;-81
2021/08/11 00:21:11;;;;;;;13.38;10.18;;;;;;;-145.71;100.00;60690.53;5012648;28;20464;-81
2021/08/11 00:23:36;;;;;;;14.23;10.00;;;;;;;-145.71;100.00;60690.53;4990689;28;20142;-80
2021/08/11 00:26:02;;;;;;;15.13;8.57;;;;;;;-145.71;100.00;60690.53;4990142;28;20061;-81
2021/08/11 00:28:27;;;;;;;12.45;8.02;;;;;;;-145.71;100.00;60690.53;4994743;28;20742;-81
2021/08/11 00:30:53;;;;;;;12.38;8.70;;;;;;;-145.71;100.00;60690.53;4993373;28;20371;-80
2021/08/11 00:33:21;;;;;;;11.15;7.93;;;;;;;-145.71;100.00;60690.53;4993130;28;20041;-80
2021/08/11 00:35:47;;;;;;;12.65;10.00;;;;;;;-145.71;100.00;60690.53;4992674;28;20026;-81
2021/08/11 00:38:13;;;;;;;12.55;9.23;;;;;;;-145.71;100.00;60690.53;4992126;28;20037;-81
2021/08/11 00:40:38;;;;;;;14.25;9.48;;;;;;;-145.71;100.00;60690.53;4993570;28;20470;-81
2021/08/11 00:43:10;;;;;;;14.05;8.10;;;;;;;-145.71;100.00;60690.53;4994075;28;20034;-81
2021/08/11 00:45:36;;;;;;;11.07;8.73;;;;;;;-145.71;100.00;60690.53;4991509;28;20038;-81
2021/08/11 00:48:02;;;;;;;12.00;7.45;;;;;;;-145.71;100.00;60690.53;4990898;28;20474;-81
2021/08/11 00:50:27;;;;;;;11.73;8.48;;;;;;;-145.71;100.00;60690.53;4994680;28;20034;-81
2021/08/11 00:52:53;;;;;;;11.18;9.25;;;;;;;-145.71;100.00;60690.53;4993128;28;20030;-80
2021/08/11 00:55:20;;;;;;;12.38;7.88;;;;;;;-145.71;100.00;60690.53;4992615;28;20073;-81
2021/08/11 00:57:46;;;;;;;10.18;8.50;;;;;;;-145.71;100.00;60690.53;4991707;28;20093;-80
2021/08/11 01:00:13;;;;;;;15.30;10.40;;;;;;;-145.71;100.00;60690.53;4989580;28;20057;-80
2021/08/11 01:02:40;;;;;;;12.00;8.27;;;;;;;-145.71;100.00;60690.53;4994024;28;20065;-81
2021/08/11 01:05:06;;;;;;;11.80;6.18;;;;;;;-145.71;100.00;60690.53;4992161;28;20029;-80
2021/08/11 01:07:34;;;;;;;17.40;9.23;;;;;;;-145.71;100.00;60690.53;4991320;28;20145;-81
2021/08/11 01:09:59;;;;;;;12.15;7.95;;;;;;;-145.71;100.00;60690.53;4993301;28;20131;-81
2021/08/11 01:12:27;;;;;;;16.80;9.52;;;;;;;-145.71;100.00;60690.53;4991798;28;20121;-80
2021/08/11 01:14:53;;;;;;;14.90;10.85;;;;;;;-145.71;100.00;60690.53;4991121;28;20030;-80
2021/08/11 01:17:20;;;;;;;16.27;10.38;;;;;;;-145.71;100.00;60690.53;4992280;28;20092;-80
2021/08/11 01:19:46;;;;;;;10.55;7.30;;;;;;;-145.71;100.00;60690.53;4990693;28;20105;-80
2021/08/11 01:22:23;;;;;;;18.52;10.32;;;;;;;-145.71;100.00;60690.53;4989582;28;20022;-80
2021/08/11 01:24:56;;;;;;;10.25;6.97;;;;;;;-145.71;100.00;60690.53;4990810;28;20537;-80
2021/08/11 01:27:55;;;;;;;14.98;11.32;;;;;;;-145.71;100.00;60690.53;4991598;28;20030;-81
2021/08/11 01:30:27;;;;;;;16.77;10.35;;;;;;;-145.71;100.00;60690.53;4989788;28;20060;-81
2021/08/11 01:32:59;;;;;;;13.40;9.25;;;;;;;-145.71;100.00;60690.53;4994026;28;20026;-81
2021/08/11 01:35:46;;;;;;;15.65;11.50;;;;;;;-145.71;100.00;60690.53;4992232;28;20026;-81
2021/08/11 01:38:17;;;;;;;17.75;11.30;;;;;;;-145.71;100.00;60690.53;4990979;28;20092;-81
2021/08/11 01:40:49;;;;;;;16.50;10.85;;;;;;;-145.71;100.00;60690.53;4990685;28;20022;-80
2021/08/11 01:43:16;;;;;;;13.50;10.02;;;;;;;-145.71;100.00;60690.53;4991594;28;20027;-80
2021/08/11 01:45:42;;;;;;;17.95;11.45;;;;;;;-145.71;100.00;60690.53;4989666;28;20045;-80
2021/08/11 01:48:14;;;;;;;14.30;11.15;;;;;;;-145.71;100.00;60690.53;4990513;28;20026;-81
2021/08/11 01:50:45;;;;;;;15.90;9.20;;;;;;;-145.71;100.00;60690.53;4990446;28;20097;-80
2021/08/11 01:53:19;;;;;;;14.30;10.40;;;;;;;-145.71;100.00;60690.53;4988659;28;20026;-80
2021/08/11 01:55:56;;;;;;;23.63;13.70;;;;;;;-145.71;100.00;60690.53;4995007;28;20045;-81
2021/08/11 01:58:27;;;;;;;19.60;12.50;;;;;;;-145.71;100.00;60690.53;4992764;28;20049;-80
2021/08/11 02:00:54;;;;;;;;;;;;;;;-145.71;100.00;60690.53;4993640;28;20026;-81
2021/08/11 02:03:21;;;;;;;24.17;15.13;;;;;;;-145.71;100.00;60690.53;4991143;28;19914;-80
2021/08/11 02:05:48;;;;;;;23.15;15.15;;;;;;;-145.71;100.00;60690.53;4992413;28;20051;-81
2021/08/11 02:08:15;;;;;;;27.92;16.75;;;;;;;-145.71;100.00;60690.53;4991681;28;20037;-81
2021/08/11 02:10:42;;;;;;;24.83;14.80;;;;;;;-145.71;100.00;60690.53;4990738;28;20037;-81
2021/08/11 02:13:08;;;;;;;21.73;16.45;;;;;;;-145.71;100.00;60690.53;4989203;28;20038;-80
2021/08/11 02:15:34;;;;;;;22.25;16.02;;;;;;;-145.71;100.00;60690.53;4991298;28;20030;-80
2021/08/11 02:18:01;;;;;;;23.27;14.60;;;;;;;-145.71;100.00;60690.53;4993650;28;20040;-80
2021/08/11 02:20:26;;;;;;;26.92;16.85;;;;;;;-145.71;100.00;60690.53;4995283;28;20088;-81
2021/08/11 02:22:52;;;;;;;20.95;13.95;;;;;;;-145.71;100.00;60690.53;4995851;28;20499;-81
2021/08/11 02:25:17;;;;;;;26.17;16.90;;;;;;;-145.71;100.00;60690.53;4997796;28;20120;-80
2021/08/11 02:28:00;;;;;;;31.92;16.27;;;;;;;-145.71;100.00;60690.53;4997253;28;20054;-80
2021/08/11 02:30:36;;;;;;;26.08;18.38;;;;;;;-145.71;100.00;60690.53;4995947;28;20034;-80
2021/08/11 02:33:10;;;;;;;22.02;15.57;;;;;;;-145.71;100.00;60690.53;4995045;28;20022;-81
2021/08/11 02:35:52;;;;;;;24.05;16.83;;;;;;;-145.71;100.00;60690.53;4994565;28;20030;-80
2021/08/11 02:38:24;;;;;;;23.13;17.42;;;;;;;-145.71;100.00;60690.53;4992508;28;20394;-80
2021/08/11 02:41:01;;;;;;;18.20;12.75;;;;;;;-145.71;100.00;60690.53;4992386;28;20036;-81
2021/08/11 02:43:45;;;;;;;21.92;16.33;;;;;;;-145.71;100.00;60690.53;4991945;28;20027;-81
2021/08/11 02:46:18;;;;;;;19.45;13.68;;;;;;;-145.71;100.00;60690.53;4995559;28;20030;-80
2021/08/11 02:48:52;;;;;;;28.75;19.15;;;;;;;-145.71;100.00;60690.53;4996702;28;20478;-80
2021/08/11 02:51:18;;;;;;;25.35;19.05;;;;;;;-145.71;100.00;60690.53;4996122;28;20501;-80
2021/08/11 02:53:44;;;;;;;28.75;19.77;;;;;;;-145.71;100.00;60690.53;4993204;28;20026;-81
2021/08/11 02:56:13;;;;;;;27.80;20.08;;;;;;;-145.71;100.00;60690.53;4996986;28;20090;-81
2021/08/11 02:58:39;;;;;;;21.45;15.90;;;;;;;-145.71;100.00;60690.53;4993806;28;20542;-80
2021/08/11 03:01:04;;;;;;;24.77;17.38;;;;;;;-145.71;100.00;60690.53;4992439;28;20073;-80
2021/08/11 03:03:30;;;;;;;26.50;17.73;;;;;;;-145.71;100.00;60690.53;4992729;28;20077;-80
2021/08/11 03:05:56;;;;;;;23.27;16.88;;;;;;;-145.71;100.00;60690.53;4993595;28;20040;-80
2021/08/11 03:08:23;;;;;;;21.92;15.90;;;;;;;-145.71;100.00;60690.53;4995705;28;20029;-81
2021/08/11 03:10:49;;;;;;;28.23;18.05;;;;;;;-145.71;100.00;60690.53;4996262;28;20120;-81
2021/08/11 03:13:15;;;;;;;23.77;17.80;;;;;;;-145.71;100.00;60690.53;4995052;28;20061;-80
2021/08/11 03:15:44;;;;;;;21.90;17.95;;;;;;;-145.71;100.00;60690.53;4994037;28;20041;-80
2021/08/11 03:18:10;;;;;;;33.75;22.13;;;;;;;-145.71;100.00;60690.53;4995100;28;20045;-81
2021/08/11 03:20:37;;;;;;;33.92;22.38;;;;;;;-145.71;100.00;60690.53;4995672;28;20029;-81
2021/08/11 03:23:02;;;;;;;24.60;19.25;;;;;;;-145.71;100.00;60690.53;4992950;28;20050;-80
2021/08/11 03:25:28;;;;;;;36.53;22.60;;;;;;;-145.71;100.00;60690.53;4994339;28;20035;-81
2021/08/11 03:27:53;;;;;;;34.20;21.52;;;;;;;-145.71;100.00;60690.53;4991236;28;20600;-80
2021/08/11 03:30:18;;;;;;;22.38;17.95;;;;;;;-145.71;100.00;60690.53;4991523;28;20479;-81
2021/08/11 03:32:44;;;;;;;30.88;21.35;;;;;;;-145.71;100.00;60690.53;4992818;28;20030;-81
2021/08/11 03:35:09;;;;;;;18.55;14.70;;;;;;;-145.71;100.00;60690.53;4996300;28;20109;-81
2021/08/11 03:37:35;;;;;;;20.75;14.73;;;;;;;-145.71;100.00;60690.53;4995562;28;20026;-81
2021/08/11 03:40:00;;;;;;;38.88;25.83;;;;;;;-145.71;100.00;60690.53;4993338;28;20046;-81
2021/08/11 03:42:25;;;;;;;36.90;24.80;;;;;;;-145.71;100.00;60690.53;4993460;28;20030;-80
2021/08/11 03:44:51;;;;;;;19.67;17.45;;;;;;;-145.71;100.00;60690.53;4991545;28;20129;-81
2021/08/11 03:47:16;;;;;;;19.83;15.88;;;;;;;-145.71;100.00;60690.53;4993464;28;20061;-81
2021/08/11 03:49:45;;;;;;;19.67;17.23;;;;;;;-145.71;100.00;60690.53;4994953;28;20035;-81
2021/08/11 03:52:10;;;;;;;34.05;23.33;;;;;;;-145.71;100.00;60690.53;4994685;28;20110;-81
2021/08/11 03:54:35;;;;;;;19.60;16.85;;;;;;;-145.71;100.00;60690.53;4993479;28;20113;-80
2021/08/11 03:57:01;;;;;;;37.78;25.83;;;;;;;-145.71;100.00;60690.53;4994067;28;20029;-81
2021/08/11 03:59:26;;;;;;;26.27;21.83;;;;;;;-145.71;100.00;60690.53;4994525;28;20065;-81
2021/08/11 04:01:53;;;;;;;39.13;25.70;;;;;;;-145.71;100.00;60690.53;4995697;28;20081;-80
2021/08/11 04:04:19;;;;;;;24.77;18.95;;;;;;;-145.71;100.00;60690.53;4992542;28;20582;-80
2021/08/11 04:06:44;;;;;;;18.27;16.48;;;;;;;-145.71;100.00;60690.53;4992632;28;20113;-81
2021/08/11 04:09:09;;;;;;;27.80;19.60;;;;;;;-145.71;100.00;60690.53;4992732;28;20030;-80
2021/08/11 04:11:35;;;;;;;29.05;20.77;;;;;;;-145.71;100.00;60690.53;4990659;28;20431;-80
2021/08/11 04:14:00;;;;;;;21.67;15.73;;;;;;;-145.71;100.00;60690.53;4992828;28;20022;-81
2021/08/11 04:16:25;;;;;;;20.02;17.88;;;;;;;-145.71;100.00;60690.53;4993656;28;20086;-80
2021/08/11 04:18:50;;;;;;;28.60;21.67;;;;;;;-145.71;100.00;60690.53;4994566;28;20041;-81
2021/08/11 04:21:16;;;;;;;32.35;22.88;;;;;;;-145.71;100.00;60690.53;4993982;28;20045;-81
2021/08/11 04:23:41;;;;;;;20.25;18.08;;;;;;;-145.71;100.00;60690.53;5005327;28;20054;-80
2021/08/11 04:26:06;;;;;;;49.28;29.83;;;;;;;-145.71;100.00;60690.53;5014708;28;20614;-81
2021/08/11 04:28:32;;;;;;;21.23;18.63;;;;;;;-145.71;100.00;60690.53;5013251;28;20049;-81
2021/08/11 04:30:57;;;;;;;22.85;19.15;;;;;;;-145.71;100.00;60690.53;5012662;28;20041;-81
2021/08/11 04:33:22;;;;;;;26.23;21.38;;;;;;;-145.71;100.00;60690.53;4993660;28;20036;-80
2021/08/11 04:35:47;;;;;;;50.65;32.08;;;;;;;-145.71;100.00;60690.53;4993390;28;20080;-81
2021/08/11 04:38:13;;;;;;;30.85;23.60;;;;;;;-145.71;100.00;60690.53;5010733;28;20351;-81
2021/08/11 04:40:38;;;;;;;55.20;35.42;;;;;;;-145.71;100.00;60690.53;4994296;28;20399;-81
2021/08/11 04:43:06;;;;;;;38.58;27.15;;;;;;;-145.71;100.00;60690.53;5013750;28;20036;-81
2021/08/11 04:45:31;;;;;;;21.58;18.25;;;;;;;-145.71;100.00;60690.53;4995751;28;20018;-80
2021/08/11 04:47:57;;;;;;;33.00;22.65;;;;;;;-145.71;100.00;60690.53;4993915;28;20060;-81
2021/08/11 04:50:22;;;;;;;20.08;17.10;;;;;;;-145.71;100.00;60690.53;5011118;28;20112;-80
2021/08/11 04:52:48;;;;;;;20.63;17.67;;;;;;;-145.71;100.00;60690.53;4993052;28;20033;-80
2021/08/11 04:55:13;;;;;;;23.05;18.27;;;;;;;-145.71;100.00;60690.53;4992985;28;20022;-81
2021/08/11 04:57:39;;;;;;;28.33;21.38;;;;;;;-145.71;100.00;60690.53;5010705;28;20041;-82
2021/08/11 05:00:05;;;;;;;22.05;19.23;;;;;;;-145.71;100.00;60690.53;4991317;28;20040;-79
2021/08/11 05:02:37;;;;;;;26.17;21.40;;;;;;;-145.71;100.00;60690.53;5004380;28;20037;-81
2021/08/11 05:05:03;;;;;;;22.08;18.05;;;;;;;-145.71;100.00;60690.53;5009911;28;20754;-80
2021/08/11 05:07:29;;;;;;;20.48;16.35;;;;;;;-145.71;100.00;60690.53;5006014;28;20033;-81
2021/08/11 05:09:54;;;;;;;18.25;15.75;;;;;;;-145.71;100.00;60690.53;4994877;28;20017;-80
2021/08/11 05:12:20;;;;;;;18.48;16.60;;;;;;;-145.71;100.00;60690.53;5023220;28;20064;-81
2021/08/11 05:14:45;;;;;;;21.88;17.73;;;;;;;-145.71;100.00;60690.53;5023813;28;20178;-80
2021/08/11 05:17:10;;;;;;;20.25;14.82;;;;;;;-145.71;100.00;60690.53;5012512;28;20357;-81
2021/08/11 05:19:36;;;;;;;17.02;15.30;;;;;;;-145.71;100.00;60690.53;5022244;28;20029;-81
2021/08/11 05:22:02;;;;;;;21.52;16.58;;;;;;;-145.71;100.00;60690.53;5003142;28;20018;-81
2021/08/11 05:24:27;;;;;;;16.65;12.95;;;;;;;-145.71;100.00;60690.53;5001994;28;20136;-79
2021/08/11 05:26:52;;;;;;;18.10;14.43;;;;;;;-145.71;100.00;60690.53;5014245;28;20034;-80
2021/08/11 05:29:18;;;;;;;20.23;14.10;;;;;;;-145.71;100.00;60690.53;5024412;28;20068;-81
2021/08/11 05:31:44;;;;;;;22.42;16.48;;;;;;;-145.71;100.00;60690.53;5007109;28;20029;-80
2021/08/11 05:34:09;;;;;;;20.25;14.43;;;;;;;-145.71;100.00;60690.53;5006955;28;20030;-81
2021/08/11 05:36:35;;;;;;;23.90;14.32;;;;;;;-145.71;100.00;60690.53;5018406;28;20029;-80
2021/08/11 05:39:00;;;;;;;16.35;10.90;;;;;;;-145.71;100.00;60690.53;5011311;28;20840;-81
2021/08/11 05:41:25;;;;;;;18.45;11.75;;;;;;;-145.71;100.00;60690.53;5025389;28;20030;-81
2021/08/11 05:43:50;;;;;;;15.70;10.02;;;;;;;-145.71;100.00;60690.53;4999094;28;20389;-81
2021/08/11 05:46:16;;;;;;;16.45;10.57;;;;;;;-145.71;100.00;60690.53;5020675;28;20038;-81
2021/08/11 05:48:41;;;;;;;19.77;12.07;;;;;;;-145.71;100.00;60690.53;5004438;28;20554;-81
2021/08/11 05:51:07;;;;;;;15.18;10.18;;;;;;;-145.71;100.00;60690.53;5014308;28;20050;-81
2021/08/11 05:53:32;;;;;;;16.95;9.93;;;;;;;-145.71;100.00;60690.53;5028440;28;20525;-81
2021/08/11 05:55:57;;;;;;;20.10;11.23;;;;;;;-145.71;100.00;60690.53;4993812;28;20477;-81
2021/08/11 05:58:23;;;;;;;14.38;10.32;;;;;;;-145.71;100.00;60690.53;5022592;28;20040;-81
2021/08/11 06:00:48;;;;;;;16.23;11.25;;;;;;;-145.71;100.00;60690.53;5000551;28;20030;-81
2021/08/11 06:03:13;;;;;;;15.63;10.30;;;;;;;-145.71;100.00;60690.53;5009211;28;20033;-80
2021/08/11 06:05:39;;;;;;;14.00;9.05;;;;;;;-145.71;100.00;60690.53;5016987;28;20065;-81
2021/08/11 06:08:05;;;;;;;16.65;9.85;;;;;;;-145.71;100.00;60690.53;5025469;28;20030;-80
2021/08/11 06:10:30;;;;;;;15.48;9.10;;;;;;;-145.71;100.00;60690.53;5024036;28;20104;-80
2021/08/11 06:12:55;;;;;;;16.67;9.63;;;;;;;-145.71;100.00;60690.53;5016860;28;20429;-80
2021/08/11 06:15:21;;;;;;;14.48;9.50;;;;;;;-145.71;100.00;60690.53;5010794;28;20091;-81
2021/08/11 06:17:49;;;;;;;15.50;9.68;;;;;;;-145.71;100.00;60690.53;5013794;28;20053;-81
2021/08/11 06:20:18;;;;;;;12.65;8.70;;;;;;;-145.71;100.00;60690.53;5022382;28;20133;-80
2021/08/11 06:22:44;;;;;;;12.35;8.85;;;;;;;-145.71;100.00;60690.53;5032802;28;20040;-81
2021/08/11 06:25:10;;;;;;;21.98;9.43;;;;;;;-145.71;100.00;60690.53;5015547;28;20030;-80
2021/08/11 06:27:36;;;;;;;13.82;8.68;;;;;;;-145.71;100.00;60690.53;5013115;28;20049;-81
2021/08/11 06:30:02;;;;;;;13.23;8.27;;;;;;;-145.71;100.00;60690.53;5020271;28;20156;-81
2021/08/11 06:32:28;;;;;;;16.08;8.85;;;;;;;-145.71;100.00;60690.53;5007103;28;20065;-81
2021/08/11 06:34:53;;;;;;;13.80;7.22;;;;;;;-145.71;100.00;60690.53;5012191;28;20136;-81
2021/08/11 06:37:18;;;;;;;13.07;8.30;;;;;;;-145.71;100.00;60690.53;4994701;28;20113;-81
2021/08/11 06:39:44;;;;;;;11.45;7.43;;;;;;;-145.71;100.00;60690.53;4993576;28;20030;-81
2021/08/11 06:42:10;;;;;;;14.48;8.52;;;;;;;-145.71;100.00;60690.53;4999921;28;20055;-81
2021/08/11 06:44:35;;;;;;;13.25;7.55;;;;;;;-145.71;100.00;60690.53;5001881;28;20041;-81
2021/08/11 06:47:00;;;;;;;13.18;7.55;;;;;;;-145.71;100.00;60690.53;5014255;28;20490;-81
2021/08/11 06:49:26;;;;;;;12.45;7.35;;;;;;;-145.71;100.00;60690.53;5026507;28;20041;-81
2021/08/11 06:51:51;;;;;;;17.25;8.35;;;;;;;-145.71;100.00;60690.53;5020700;28;20030;-81
2021/08/11 06:54:16;;;;;;;12.15;7.72;;;;;;;-145.71;100.00;60690.53;5024857;28;20030;-80
2021/08/11 06:56:42;;;;;;;9.82;6.75;;;;;;;-145.71;100.00;60690.53;5002969;28;20025;-81
2021/08/11 06:59:07;;;;;;;15.88;7.28;;;;;;;-145.71;100.00;60690.53;5019560;28;20105;-81
2021/08/11 07:01:33;;;;;;;16.33;7.65;;;;;;;-145.71;100.00;60690.53;4994056;28;20029;-81
2021/08/11 07:03:58;;;;;;;8.68;6.70;;;;;;;-145.71;100.00;60690.53;5022745;28;20036;-80
2021/08/11 07:06:23;;;;;;;10.55;7.53;;;;;;;-145.71;100.00;60690.53;5022740;28;20026;-80
2021/08/11 07:08:52;;;;;;;12.73;6.88;;;;;;;-145.71;100.00;60690.53;5002049;28;20056;-80
2021/08/11 07:11:18;;;;;;;11.27;7.28;;;;;;;-145.71;100.00;60690.53;4997170;28;20026;-81
2021/08/11 07:13:44;;;;;;;15.10;7.68;;;;;;;-145.71;100.00;60690.53;5028688;28;20449;-81
2021/08/11 07:16:09;;;;;;;8.93;6.47;;;;;;;-145.71;100.00;60690.53;5017906;28;20021;-81
2021/08/11 07:18:35;;;;;;;10.40;6.70;;;;;;;-145.71;100.00;60690.53;5005526;28;20091;-81
2021/08/11 07:21:00;;;;;;;14.05;6.43;;;;;;;-145.71;100.00;60690.53;5005375;28;20035;-81
2021/08/11 07:23:26;;;;;;;10.82;6.70;;;;;;;-145.71;100.00;60690.53;5016161;28;20046;-81
2021/08/11 07:25:51;;;;;;;13.52;6.40;;;;;;;-145.71;100.00;60690.53;5009652;28;20469;-81
2021/08/11 07:28:16;;;;;;;17.60;6.55;;;;;;;-145.71;100.00;60690.53;5021980;28;20041;-82
2021/08/11 07:30:43;;;;;;;8.63;6.28;;;;;;;-145.71;100.00;60690.53;5022782;28;20037;-81
2021/08/11 07:33:09;;;;;;;16.17;6.15;;;;;;;-145.71;100.00;60690.53;4993331;28;20047;-81
2021/08/11 07:35:35;;;;;;;11.88;6.80;;;;;;;-145.71;100.00;60690.53;5009454;28;20038;-81
2021/08/11 07:38:01;;;;;;;10.55;6.43;;;;;;;-145.71;100.00;60690.53;4996336;28;20037;-80
2021/08/11 07:40:27;;;;;;;8.18;5.60;;;;;;;-145.71;100.00;60690.53;5003173;28;20037;-81
2021/08/11 07:42:54;;;;;;;9.15;6.20;;;;;;;-145.71;100.00;60690.53;5012043;28;20519;-82
2021/08/11 07:45:21;;;;;;;8.70;5.55;;;;;;;-145.71;100.00;60690.53;5026173;28;20063;-81
2021/08/11 07:47:48;;;;;;;9.50;5.50;;;;;;;-145.71;100.00;60690.53;4997627;28;20599;-80
2021/08/11 07:50:16;;;;;;;8.95;6.00;;;;;;;-145.71;100.00;60690.53;5025007;28;20041;-81
2021/08/11 07:52:41;;;;;;;7.88;5.15;;;;;;;-145.71;100.00;60690.53;5018596;28;20116;-81
2021/08/11 07:55:07;;;;;;;8.48;6.07;;;;;;;-145.71;100.00;60690.53;4998617;28;20031;-80
2021/08/11 07:57:33;;;;;;;9.02;6.25;;;;;;;-145.71;100.00;60690.53;5024927;28;20025;-81
2021/08/11 07:59:59;;;;;;;14.90;6.55;;;;;;;-145.71;100.00;60690.53;5011828;28;20029;-81
2021/08/11 08:02:24;;;;;;;10.65;5.28;;;;;;;-145.71;100.00;60690.53;5021730;28;20025;-80
2021/08/11 08:04:49;;;;;;;8.65;5.63;;;;;;;-145.71;100.00;60690.53;5019389;28;20021;-81
2021/08/11 08:07:14;;;;;;;6.93;4.57;;;;;;;-145.71;100.00;60690.53;5014527;28;20037;-81
2021/08/11 08:09:40;;;;;;;6.53;5.10;;;;;;;-145.71;100.00;60690.53;5029918;28;20883;-81
2021/08/11 08:12:05;;;;;;;8.73;5.60;;;;;;;-145.71;100.00;60690.53;5016485;28;20710;-81
2021/08/11 08:14:32;;;;;;;6.43;4.93;;;;;;;-145.71;100.00;60690.53;5023341;28;20372;-81
2021/08/11 08:16:57;;;;;;;7.70;5.25;;;;;;;-145.71;100.00;60690.53;5003044;28;20806;-81
2021/08/11 08:19:23;;;;;;;11.30;5.00;;;;;;;-145.71;100.00;60690.53;5015266;28;20030;-81
2021/08/11 08:21:48;;;;;;;7.50;5.30;;;;;;;-145.71;100.00;60690.53;5009722;28;20025;-80
2021/08/11 08:24:13;;;;;;;9.27;5.35;;;;;;;-145.71;100.00;60690.53;5005850;28;20048;-80
2021/08/11 08:26:38;;;;;;;10.63;5.75;;;;;;;-145.71;100.00;60690.53;5000363;28;20028;-80
2021/08/11 08:29:04;;;;;;;9.50;4.97;;;;;;;-145.71;100.00;60690.53;4998482;28;20136;-81
2021/08/11 08:31:30;;;;;;;8.40;5.07;;;;;;;-145.71;100.00;60690.53;5023534;28;20036;-80
2021/08/11 08:33:56;;;;;;;12.45;5.10;;;;;;;-145.71;100.00;60690.53;5011553;28;20041;-80
2021/08/11 08:36:21;;;;;;;6.78;4.45;;;;;;;-145.71;100.00;60690.53;5021496;28;20028;-83
2021/08/11 08:38:47;;;;;;;12.02;5.35;;;;;;;-145.71;100.00;60690.53;5000759;28;20025;-83
2021/08/11 08:41:13;;;;;;;9.93;5.43;;;;;;;-145.71;100.00;60690.53;5001150;28;20034;-83
2021/08/11 08:43:39;;;;;;;11.48;5.82;;;;;;;-145.71;100.00;60690.53;5027490;28;20029;-82
2021/08/11 08:46:05;;;;;;;6.97;5.25;;;;;;;-145.71;100.00;60690.53;5011218;28;20030;-82
2021/08/11 08:48:32;;;;;;;18.17;6.93;;;;;;;-145.71;100.00;60690.53;5018643;28;20033;-80
2021/08/11 08:50:58;;;;;;;8.73;4.60;;;;;;;-145.71;100.00;60690.53;5017811;28;20029;-80
2021/08/11 08:53:23;;;;;;;7.28;5.22;;;;;;;-145.71;100.00;60690.53;5024095;28;20782;-80
2021/08/11 08:55:50;;;;;;;10.45;5.18;;;;;;;-145.71;100.00;60690.53;5011649;28;20018;-80
2021/08/11 08:58:17;;;;;;;9.40;4.30;;;;;;;-145.71;100.00;60690.53;5004376;28;20131;-81
2021/08/11 09:00:42;;;;;;;10.27;4.53;;;;;;;-145.71;100.00;60690.53;5016770;28;20029;-80
2021/08/11 09:03:08;;;;;;;7.30;4.80;;;;;;;-145.71;100.00;60690.53;5015530;28;20026;-81
2021/08/11 09:05:33;;;;;;;5.65;4.45;;;;;;;-145.71;100.00;60690.53;5026550;28;20812;-83
2021/08/11 09:07:59;;;;;;;6.75;4.03;;;;;;;-145.71;100.00;60690.53;5025794;28;20106;-83
2021/08/11 09:10:27;;;;;;;6.38;4.30;;;;;;;-145.71;100.00;60690.53;5016258;28;20112;-83
2021/08/11 09:12:54;;;;;;;7.75;3.88;;;;;;;-145.71;100.00;60690.53;5020690;28;20029;-83
2021/08/11 09:15:38;;;;;;;4.55;3.13;;;;;;;-145.71;100.00;60690.53;5025565;28;20064;-83
2021/08/11 09:18:19;;;;;;;5.20;3.40;;;;;;;-145.71;100.00;60690.53;5025282;28;20053;-83
2021/08/11 09:20:47;;;;;;;5.10;3.10;;;;;;;-145.71;100.00;60690.53;5017713;28;20685;-81
2021/08/11 09:23:15;;;;;;;7.78;3.60;;;;;;;-145.71;100.00;60690.53;5009811;28;20057;-81
2021/08/11 09:25:59;;;;;;;4.70;3.28;;;;;;;-145.71;100.00;60690.53;5012695;28;20370;-81
2021/08/11 09:28:29;;;;;;;6.35;4.20;;;;;;;-145.71;100.00;60690.53;5026268;28;20088;-81
2021/08/11 09:30:55;;;;;;;8.77;3.90;;;;;;;-145.71;100.00;60690.53;5025859;28;20059;-80
2021/08/11 09:33:24;;;;;;;5.68;4.25;;;;;;;-145.71;100.00;60690.53;5018849;28;20756;-81
2021/08/11 09:35:51;;;;;;;8.10;3.95;;;;;;;-145.71;100.00;60690.53;5028668;28;20031;-81
2021/08/11 09:38:17;;;;;;;5.68;3.80;;;;;;;-145.71;100.00;60690.53;5017404;28;20025;-81
2021/08/11 09:40:43;;;;;;;4.00;2.95;;;;;;;-145.71;100.00;60690.53;5025541;28;20064;-82
2021/08/11 09:43:15;;;;;;;6.45;3.63;;;;;;;-145.71;100.00;60690.53;5008788;28;20079;-81
2021/08/11 09:45:51;;;;;;;6.60;3.05;;;;;;;-145.71;100.00;60690.53;5016705;28;20026;-81
2021/08/11 09:48:19;;;;;;;3.83;3.00;;;;;;;-145.71;100.00;60690.53;5026585;28;20049;-81
2021/08/11 09:50:47;;;;;;;4.30;3.05;;;;;;;-145.71;100.00;60690.53;5003526;28;20045;-81
2021/08/11 09:53:23;;;;;;;4.68;3.50;;;;;;;-145.71;100.00;60690.53;5018758;28;20438;-81
2021/08/11 09:56:10;;;;;;;9.15;3.40;;;;;;;-145.71;100.00;60690.53;5012499;28;20025;-81
2021/08/11 09:58:41;;;;;;;5.68;3.28;;;;;;;-145.71;100.00;60690.53;4994515;28;20041;-81
2021/08/11 10:01:16;;;;;;;5.30;3.15;;;;;;;-145.71;100.00;60690.53;5006226;28;20033;-81
2021/08/11 10:03:59;;;;;;;6.43;3.03;;;;;;;-145.71;100.00;60690.53;5014322;28;20099;-81
2021/08/11 10:06:29;;;;;;;5.18;3.28;;;;;;;-145.71;100.00;60690.53;5018332;28;20032;-80
2021/08/11 10:08:55;;;;;;;6.57;3.03;;;;;;;-145.71;100.00;60690.53;5036778;28;20041;-81
2021/08/11 10:11:57;;;;;;;4.80;3.63;;;;;;;-145.71;100.00;60690.53;5001611;28;20669;-81
2021/08/11 10:14:28;;;;;;;4.03;3.33;;;;;;;-145.71;100.00;60690.53;4958302;28;20041;-81
2021/08/11 10:16:55;;;;;;;5.40;3.80;;;;;;;-145.71;100.00;60690.53;5003578;28;20032;-82
2021/08/11 10:19:24;;;;;;;4.35;3.35;;;;;;;-145.71;100.00;60690.53;5027823;28;20075;-81
2021/08/11 10:21:55;;;;;;;7.72;3.05;;;;;;;-145.71;100.00;60690.53;5032640;28;20136;-81
2021/08/11 10:24:21;;;;;;;;;;;;;;;-145.71;100.00;60690.53;5026045;28;20049;-80
2021/08/11 10:26:48;;;;;;;5.85;3.58;;;;;;;-145.71;100.00;60690.53;5020782;28;19978;-81
2021/08/11 10:29:14;;;;;;;6.05;4.07;;;;;;;-145.71;100.00;60690.53;4999075;28;20036;-81
2021/08/11 10:31:40;;;;;;;5.57;3.42;;;;;;;-145.71;100.00;60690.53;5010199;28;20030;-80
2021/08/11 10:34:07;;;;;;;3.55;3.17;;;;;;;-145.71;100.00;60690.53;5025700;28;20053;-81
2021/08/11 10:36:32;;;;;;;5.95;3.60;;;;;;;-145.71;100.00;60690.53;5021962;28;20026;-82
2021/08/11 10:38:59;;;;;;;3.42;3.13;;;;;;;-145.71;100.00;60690.53;5022468;28;20065;-81
2021/08/11 10:41:36;;;;;;;5.60;3.40;;;;;;;-145.71;100.00;60690.53;5014061;28;20026;-82
2021/08/11 10:44:03;;;;;;;4.43;2.58;;;;;;;-145.71;100.00;60690.53;5018026;28;20052;-81
2021/08/11 10:46:36;;;;;;;5.43;2.78;;;;;;;-145.71;100.00;60690.53;5016991;28;20761;-81
2021/08/11 10:49:04;;;;;;;3.67;3.10;;;;;;;-145.71;100.00;60690.53;5023272;28;20049;-81
2021/08/11 10:51:43;;;;;;;5.38;2.83;;;;;;;-145.71;100.00;60690.53;5015715;28;20030;-81
2021/08/11 10:54:10;;;;;;;5.65;3.00;;;;;;;-145.71;100.00;60690.53;5000147;28;20037;-81
2021/08/11 10:56:55;;;;;;;4.35;2.75;;;;;;;-145.71;100.00;60690.53;5021712;28;20022;-81
2021/08/11 10:59:24;;;;;;;4.95;2.90;;;;;;;-145.71;100.00;60690.53;5006908;28;20036;-81
2021/08/11 11:01:54;;;;;;;11.13;4.25;;;;;;;-145.71;100.00;60690.53;5011973;28;20026;-81
2021/08/11 11:04:38;;;;;;;4.53;3.20;;;;;;;-145.71;100.00;60690.53;4997901;28;20112;-80